Time;durP1;ratioP1;P1;durP2;ratioP2;P2;SDS_P1;SDS_P2;PMS_P1;PMS_P2;Temp;Humidity;BMP_temperature;BMP_pressure;BME280_temperature;BME280_humidity;BME280_pressure;Samples;Min_cycle;Max_cycle;Signal;HPM_P1;HPM_P2
2024/02/25 00:02:07;;;;;;;1.90;1.80;;;;;;;;;;5015499;28;25054;-67
2024/02/25 00:04:33;;;;;;;2.20;2.10;;;;;;;;;;5003418;28;25118;-67
2024/02/25 00:06:59;;;;;;;3.03;2.22;;;;;;;;;;5007407;28;25123;-67
2024/02/25 00:09:25;;;;;;;2.28;1.88;;;;;;;;;;5000138;28;25058;-66
2024/02/25 00:11:51;;;;;;;3.63;2.08;;;;;;;;;;5004529;28;25068;-67
2024/02/25 00:14:17;;;;;;;2.08;1.98;;;;;;;;;;5007132;28;25067;-66
2024/02/25 00:16:42;;;;;;;3.40;2.05;;;;;;;;;;5002081;28;25050;-67
2024/02/25 00:19:09;;;;;;;2.85;2.63;;;;;;;;;;4985154;28;25060;-68
2024/02/25 00:21:35;;;;;;;2.20;1.70;;;;;;;;;;5003420;28;25140;-67
2024/02/25 00:24:01;;;;;;;1.80;1.70;;;;;;;;;;5001572;28;25092;-67
2024/02/25 00:26:27;;;;;;;2.28;1.92;;;;;;;;;;5007693;28;25085;-67
2024/02/25 00:28:53;;;;;;;2.67;2.00;;;;;;;;;;5001915;28;25073;-68
2024/02/25 00:31:19;;;;;;;2.20;2.00;;;;;;;;;;5002496;28;25148;-66
2024/02/25 00:33:46;;;;;;;3.22;2.03;;;;;;;;;;5005724;28;25057;-67
2024/02/25 00:36:12;;;;;;;2.40;2.20;;;;;;;;;;5001511;28;25087;-67
2024/02/25 00:38:38;;;;;;;2.42;2.13;;;;;;;;;;5003222;28;25074;-67
2024/02/25 00:41:05;;;;;;;4.13;2.35;;;;;;;;;;4996820;28;25089;-67
2024/02/25 00:43:31;;;;;;;3.20;2.33;;;;;;;;;;4997228;28;25091;-66
2024/02/25 00:45:57;;;;;;;3.83;2.75;;;;;;;;;;5001173;28;25108;-67
2024/02/25 00:48:23;;;;;;;3.03;2.83;;;;;;;;;;5000311;28;25106;-67
2024/02/25 00:50:49;;;;;;;4.80;3.03;;;;;;;;;;5000181;28;25066;-66
2024/02/25 00:53:16;;;;;;;3.80;3.33;;;;;;;;;;5001026;28;25097;-66
2024/02/25 00:55:42;;;;;;;3.08;2.80;;;;;;;;;;4991118;28;25060;-66
2024/02/25 00:58:08;;;;;;;3.38;2.95;;;;;;;;;;4996868;28;25111;-69
2024/02/25 01:00:34;;;;;;;3.38;3.08;;;;;;;;;;4989796;28;25067;-68
2024/02/25 01:03:00;;;;;;;3.10;2.80;;;;;;;;;;5005987;28;25064;-67
2024/02/25 01:05:26;;;;;;;2.92;2.72;;;;;;;;;;5008707;28;25077;-66
2024/02/25 01:07:52;;;;;;;3.97;2.97;;;;;;;;;;5008261;28;25060;-68
2024/02/25 01:10:18;;;;;;;3.28;3.08;;;;;;;;;;5003878;28;25096;-67
2024/02/25 01:12:44;;;;;;;3.65;3.00;;;;;;;;;;5005893;28;25069;-68
2024/02/25 01:15:10;;;;;;;4.28;3.08;;;;;;;;;;5001741;28;25117;-70
2024/02/25 01:17:36;;;;;;;3.45;3.17;;;;;;;;;;5003449;28;25065;-67
2024/02/25 01:20:02;;;;;;;3.83;3.53;;;;;;;;;;4989426;28;25084;-68
2024/02/25 01:22:28;;;;;;;5.60;3.70;;;;;;;;;;5003311;28;25101;-67
2024/02/25 01:24:54;;;;;;;6.30;4.13;;;;;;;;;;4983576;28;25078;-66
2024/02/25 01:27:20;;;;;;;4.10;3.70;;;;;;;;;;4987218;28;25082;-66
2024/02/25 01:29:46;;;;;;;7.57;4.28;;;;;;;;;;4989805;28;25083;-68
2024/02/25 01:32:16;;;;;;;4.28;3.88;;;;;;;;;;5003745;28;25062;-68
2024/02/25 01:34:42;;;;;;;4.43;4.03;;;;;;;;;;4999382;28;25100;-68
2024/02/25 01:37:08;;;;;;;4.50;4.10;;;;;;;;;;5001726;28;25184;-68
2024/02/25 01:39:34;;;;;;;5.80;4.20;;;;;;;;;;5000006;28;25089;-67
2024/02/25 01:42:00;;;;;;;5.82;4.05;;;;;;;;;;4991600;28;25107;-67
2024/02/25 01:44:26;;;;;;;9.50;4.85;;;;;;;;;;5002026;28;25116;-67
2024/02/25 01:46:52;;;;;;;5.40;5.00;;;;;;;;;;4997648;28;25070;-69
2024/02/25 01:49:18;;;;;;;5.63;5.13;;;;;;;;;;5000104;28;25061;-67
2024/02/25 01:51:44;;;;;;;6.57;5.00;;;;;;;;;;5002243;28;25147;-67
2024/02/25 01:54:11;;;;;;;6.00;5.50;;;;;;;;;;5001423;28;25076;-69
2024/02/25 01:56:38;;;;;;;5.88;5.32;;;;;;;;;;5004714;28;25131;-68
2024/02/25 01:59:05;;;;;;;8.18;6.88;;;;;;;;;;4997703;28;25123;-67
2024/02/25 02:01:36;;;;;;;6.80;6.28;;;;;;;;;;5001987;28;25088;-67
2024/02/25 02:04:02;;;;;;;9.70;7.35;;;;;;;;;;4999602;28;25116;-68
2024/02/25 02:06:29;;;;;;;8.60;7.30;;;;;;;;;;5006665;28;25056;-67
2024/02/25 02:08:54;;;;;;;7.53;6.82;;;;;;;;;;5016226;28;25071;-70
2024/02/25 02:11:21;;;;;;;6.78;6.18;;;;;;;;;;5023359;28;25082;-70
2024/02/25 02:13:47;;;;;;;7.82;7.03;;;;;;;;;;5019663;28;25079;-66
2024/02/25 02:16:15;;;;;;;10.63;8.63;;;;;;;;;;5021253;28;25073;-68
2024/02/25 02:18:41;;;;;;;9.02;8.15;;;;;;;;;;5006561;28;25058;-67
2024/02/25 02:21:10;;;;;;;10.55;9.55;;;;;;;;;;5005309;28;25090;-68
2024/02/25 02:23:36;;;;;;;11.02;10.00;;;;;;;;;;5005673;28;25058;-66
2024/02/25 02:26:02;;;;;;;11.57;8.70;;;;;;;;;;5006067;28;25076;-68
2024/02/25 02:28:28;;;;;;;10.80;9.75;;;;;;;;;;5005135;28;25064;-68
2024/02/25 02:30:54;;;;;;;11.05;9.77;;;;;;;;;;5005838;28;25068;-66
2024/02/25 02:33:20;;;;;;;11.43;10.30;;;;;;;;;;4999834;28;25061;-66
2024/02/25 02:35:46;;;;;;;10.85;9.75;;;;;;;;;;5009054;28;25082;-69
2024/02/25 02:38:13;;;;;;;11.95;10.73;;;;;;;;;;5004753;28;25071;-67
2024/02/25 02:40:39;;;;;;;12.15;10.95;;;;;;;;;;5002569;28;25062;-67
2024/02/25 02:43:05;;;;;;;13.13;11.35;;;;;;;;;;5007928;28;25062;-69
2024/02/25 02:45:31;;;;;;;12.40;11.23;;;;;;;;;;5000139;28;25140;-68
2024/02/25 02:47:57;;;;;;;12.07;10.93;;;;;;;;;;4998279;28;25063;-68
2024/02/25 02:50:23;;;;;;;12.65;11.35;;;;;;;;;;4988438;28;25048;-68
2024/02/25 02:52:49;;;;;;;12.48;11.20;;;;;;;;;;4987217;28;25104;-67
2024/02/25 02:55:15;;;;;;;13.98;12.40;;;;;;;;;;5000786;28;25062;-68
2024/02/25 02:57:41;;;;;;;15.25;13.35;;;;;;;;;;5002576;28;25109;-66
2024/02/25 03:00:08;;;;;;;14.75;13.25;;;;;;;;;;5005796;28;25102;-68
2024/02/25 03:02:34;;;;;;;16.95;15.07;;;;;;;;;;5000612;28;25057;-66
2024/02/25 03:05:00;;;;;;;17.15;15.32;;;;;;;;;;4981627;28;25050;-68
2024/02/25 03:07:29;;;;;;;16.75;15.05;;;;;;;;;;5001068;28;25169;-68
2024/02/25 03:09:55;;;;;;;19.15;16.80;;;;;;;;;;5004405;28;25084;-67
2024/02/25 03:12:21;;;;;;;20.50;17.75;;;;;;;;;;4996801;28;25062;-67
2024/02/25 03:14:47;;;;;;;18.00;15.90;;;;;;;;;;4979032;28;25079;-66
2024/02/25 03:17:13;;;;;;;20.02;17.92;;;;;;;;;;4997393;28;25052;-65
2024/02/25 03:19:39;;;;;;;17.38;15.60;;;;;;;;;;5004887;28;25117;-65
2024/02/25 03:22:05;;;;;;;22.10;19.90;;;;;;;;;;4996314;28;25171;-67
2024/02/25 03:24:31;;;;;;;20.55;18.25;;;;;;;;;;5005065;28;25077;-67
2024/02/25 03:26:57;;;;;;;20.90;16.73;;;;;;;;;;5004855;28;25074;-67
2024/02/25 03:29:23;;;;;;;19.75;17.73;;;;;;;;;;4999441;28;25076;-68
2024/02/25 03:31:49;;;;;;;22.52;20.08;;;;;;;;;;5003466;28;25064;-67
2024/02/25 03:34:15;;;;;;;25.77;20.08;;;;;;;;;;4985952;28;25058;-68
2024/02/25 03:36:41;;;;;;;26.10;19.95;;;;;;;;;;5002651;28;25136;-67
2024/02/25 03:39:07;;;;;;;21.77;17.98;;;;;;;;;;5001978;28;25138;-67
2024/02/25 03:41:33;;;;;;;21.20;18.95;;;;;;;;;;4998918;28;25065;-68
2024/02/25 03:43:59;;;;;;;27.25;17.80;;;;;;;;;;4998353;28;25051;-67
2024/02/25 03:46:26;;;;;;;21.70;18.63;;;;;;;;;;5001902;28;25125;-68
2024/02/25 03:48:51;;;;;;;16.20;14.55;;;;;;;;;;5005612;28;25142;-67
2024/02/25 03:51:17;;;;;;;18.42;16.50;;;;;;;;;;5001780;28;25059;-67
2024/02/25 03:53:44;;;;;;;18.02;16.15;;;;;;;;;;5003489;28;25072;-68
2024/02/25 03:56:10;;;;;;;19.75;17.67;;;;;;;;;;5000294;28;25056;-68
2024/02/25 03:58:36;;;;;;;19.02;17.02;;;;;;;;;;5007638;28;25068;-69
2024/02/25 04:01:02;;;;;;;18.60;16.38;;;;;;;;;;4991265;28;25079;-66
2024/02/25 04:03:28;;;;;;;19.23;15.88;;;;;;;;;;5004786;28;25088;-68
2024/02/25 04:05:54;;;;;;;18.25;16.30;;;;;;;;;;4981610;28;25128;-67
2024/02/25 04:08:23;;;;;;;18.48;16.48;;;;;;;;;;5002447;28;25094;-71
2024/02/25 04:10:49;;;;;;;20.13;17.13;;;;;;;;;;5000634;28;25100;-71
2024/02/25 04:13:15;;;;;;;19.42;15.38;;;;;;;;;;4995983;28;25118;-68
2024/02/25 04:15:42;;;;;;;19.13;17.13;;;;;;;;;;5001430;28;25161;-69
2024/02/25 04:18:08;;;;;;;20.25;15.27;;;;;;;;;;5001132;28;25056;-68
2024/02/25 04:20:35;;;;;;;18.45;16.42;;;;;;;;;;5009437;28;25046;-68
2024/02/25 04:23:01;;;;;;;21.50;17.67;;;;;;;;;;5019563;28;25064;-66
2024/02/25 04:25:27;;;;;;;20.67;17.73;;;;;;;;;;5020174;28;25133;-68
2024/02/25 04:27:53;;;;;;;20.77;17.38;;;;;;;;;;5016278;28;25082;-68
2024/02/25 04:30:19;;;;;;;20.98;17.33;;;;;;;;;;4985280;28;25369;-69
2024/02/25 04:32:46;;;;;;;18.80;16.85;;;;;;;;;;5005247;28;25063;-69
2024/02/25 04:35:12;;;;;;;19.17;17.27;;;;;;;;;;5001493;28;25106;-68
2024/02/25 04:37:38;;;;;;;24.02;18.95;;;;;;;;;;5002889;28;25131;-68
2024/02/25 04:40:05;;;;;;;22.15;19.10;;;;;;;;;;5000482;28;25092;-67
2024/02/25 04:42:31;;;;;;;22.50;19.15;;;;;;;;;;4995718;28;25155;-68
2024/02/25 04:44:57;;;;;;;23.45;20.58;;;;;;;;;;4978050;28;25129;-68
2024/02/25 04:47:23;;;;;;;25.08;22.38;;;;;;;;;;5002691;28;25070;-69
2024/02/25 04:49:49;;;;;;;24.33;21.63;;;;;;;;;;4986651;28;25059;-67
2024/02/25 04:52:15;;;;;;;24.13;20.42;;;;;;;;;;4989213;28;25052;-66
2024/02/25 04:54:44;;;;;;;23.42;21.00;;;;;;;;;;4996134;28;25034;-68
2024/02/25 04:57:10;;;;;;;26.50;21.77;;;;;;;;;;4999224;28;25058;-68
2024/02/25 04:59:36;;;;;;;25.15;21.38;;;;;;;;;;5000413;28;25087;-69
2024/02/25 05:02:02;;;;;;;25.45;21.35;;;;;;;;;;5004106;28;25143;-67
2024/02/25 05:04:28;;;;;;;25.92;23.05;;;;;;;;;;4983215;28;25051;-68
2024/02/25 05:06:54;;;;;;;23.88;21.48;;;;;;;;;;5001277;28;25061;-67
2024/02/25 05:09:20;;;;;;;27.77;21.52;;;;;;;;;;4996903;28;25156;-66
2024/02/25 05:11:46;;;;;;;23.65;21.23;;;;;;;;;;4989570;28;25102;-65
2024/02/25 05:14:12;;;;;;;26.05;22.25;;;;;;;;;;4996634;28;25060;-67
2024/02/25 05:16:38;;;;;;;26.38;21.00;;;;;;;;;;4998957;28;25074;-67
2024/02/25 05:19:04;;;;;;;31.85;24.27;;;;;;;;;;5002475;28;25112;-66
2024/02/25 05:21:31;;;;;;;30.20;23.52;;;;;;;;;;5003215;28;25063;-67
2024/02/25 05:23:57;;;;;;;26.33;22.20;;;;;;;;;;5002490;28;25079;-67
2024/02/25 05:26:23;;;;;;;26.25;23.05;;;;;;;;;;5004195;28;25077;-68
2024/02/25 05:28:49;;;;;;;23.30;20.42;;;;;;;;;;5002532;28;25084;-68
2024/02/25 05:31:16;;;;;;;26.40;23.50;;;;;;;;;;5001678;28;25089;-67
2024/02/25 05:33:42;;;;;;;24.58;21.92;;;;;;;;;;5000521;28;25060;-67
2024/02/25 05:36:08;;;;;;;25.92;23.02;;;;;;;;;;5001270;28;25117;-67
2024/02/25 05:38:34;;;;;;;25.65;21.98;;;;;;;;;;4999196;28;25073;-65
2024/02/25 05:41:01;;;;;;;28.42;21.10;;;;;;;;;;5000019;28;25057;-66
2024/02/25 05:43:27;;;;;;;27.30;22.58;;;;;;;;;;4989465;28;25111;-66
2024/02/25 05:45:55;;;;;;;26.38;20.73;;;;;;;;;;4996602;28;25093;-67
2024/02/25 05:48:21;;;;;;;24.52;21.48;;;;;;;;;;5000392;28;25097;-67
2024/02/25 05:50:46;;;;;;;30.10;23.42;;;;;;;;;;5003699;28;25095;-67
2024/02/25 05:53:12;;;;;;;26.20;22.08;;;;;;;;;;5000432;28;25118;-67
2024/02/25 05:55:38;;;;;;;24.80;22.20;;;;;;;;;;4997477;28;25079;-68
2024/02/25 05:58:05;;;;;;;30.67;22.23;;;;;;;;;;4998596;28;25070;-68
2024/02/25 06:00:31;;;;;;;20.60;18.48;;;;;;;;;;5004304;28;25125;-67
2024/02/25 06:02:57;;;;;;;26.23;23.35;;;;;;;;;;5005583;28;25068;-66
2024/02/25 06:05:23;;;;;;;26.88;23.98;;;;;;;;;;5006489;28;25065;-67
2024/02/25 06:07:49;;;;;;;26.40;21.35;;;;;;;;;;5004775;28;25074;-66
2024/02/25 06:10:15;;;;;;;29.05;23.83;;;;;;;;;;5003292;28;25119;-68
2024/02/25 06:12:41;;;;;;;28.98;23.17;;;;;;;;;;4985982;28;25072;-66
2024/02/25 06:15:11;;;;;;;32.88;24.45;;;;;;;;;;5003218;28;25154;-68
2024/02/25 06:17:37;;;;;;;24.15;21.55;;;;;;;;;;4997547;28;25176;-69
2024/02/25 06:20:03;;;;;;;24.92;22.33;;;;;;;;;;4995002;28;25168;-66
2024/02/25 06:22:29;;;;;;;27.48;21.73;;;;;;;;;;5004918;28;25082;-67
2024/02/25 06:24:56;;;;;;;25.67;21.65;;;;;;;;;;5004563;28;25071;-67
2024/02/25 06:27:22;;;;;;;27.95;24.75;;;;;;;;;;5007631;28;25049;-67
2024/02/25 06:29:48;;;;;;;25.15;22.33;;;;;;;;;;4994408;28;25052;-67
2024/02/25 06:32:14;;;;;;;31.40;23.73;;;;;;;;;;5002946;28;25144;-67
2024/02/25 06:34:40;;;;;;;26.30;23.60;;;;;;;;;;5005369;28;25119;-67
2024/02/25 06:37:05;;;;;;;25.80;22.58;;;;;;;;;;5014664;28;25066;-66
2024/02/25 06:39:31;;;;;;;27.90;24.10;;;;;;;;;;5023330;28;25066;-67
2024/02/25 06:41:57;;;;;;;27.98;24.60;;;;;;;;;;5023426;28;25060;-66
2024/02/25 06:44:23;;;;;;;29.30;24.83;;;;;;;;;;4997413;28;25067;-68
2024/02/25 06:46:49;;;;;;;28.45;24.67;;;;;;;;;;4989660;28;25169;-66
2024/02/25 06:49:15;;;;;;;21.67;19.30;;;;;;;;;;4983081;28;25100;-68
2024/02/25 06:51:41;;;;;;;30.10;24.10;;;;;;;;;;5002322;28;25114;-67
2024/02/25 06:54:07;;;;;;;30.13;24.67;;;;;;;;;;4989060;28;25046;-65
2024/02/25 06:56:34;;;;;;;28.33;25.23;;;;;;;;;;5005656;28;25079;-67
2024/02/25 06:59:00;;;;;;;26.55;22.35;;;;;;;;;;4987932;28;25086;-66
2024/02/25 07:01:26;;;;;;;25.33;21.45;;;;;;;;;;4996523;28;25071;-66
2024/02/25 07:03:52;;;;;;;25.08;21.83;;;;;;;;;;5002730;28;25133;-68
2024/02/25 07:06:18;;;;;;;25.40;21.55;;;;;;;;;;5003312;28;25077;-66
2024/02/25 07:08:44;;;;;;;24.73;20.55;;;;;;;;;;5003688;28;25130;-67
2024/02/25 07:11:20;;;;;;;24.48;21.15;;;;;;;;;;5004785;28;25125;-68
2024/02/25 07:13:47;;;;;;;20.88;17.40;;;;;;;;;;5006003;28;25087;-68
2024/02/25 07:16:13;;;;;;;25.42;20.83;;;;;;;;;;4991080;28;25101;-66
2024/02/25 07:18:39;;;;;;;20.38;18.30;;;;;;;;;;5005034;28;25050;-66
2024/02/25 07:21:11;;;;;;;24.58;21.02;;;;;;;;;;5006062;28;25066;-66
2024/02/25 07:23:41;;;;;;;27.90;20.98;;;;;;;;;;5006412;28;25066;-68
2024/02/25 07:26:11;;;;;;;24.55;21.55;;;;;;;;;;5003406;28;25065;-68
2024/02/25 07:28:41;;;;;;;25.67;20.85;;;;;;;;;;4992567;28;25129;-67
2024/02/25 07:31:17;;;;;;;24.15;20.75;;;;;;;;;;5004271;28;25084;-67
2024/02/25 07:33:44;;;;;;;29.02;21.65;;;;;;;;;;5007832;28;25059;-66
2024/02/25 07:36:11;;;;;;;33.28;23.98;;;;;;;;;;5003130;28;25091;-69
2024/02/25 07:38:37;;;;;;;31.27;22.73;;;;;;;;;;5001780;28;25064;-68
2024/02/25 07:41:03;;;;;;;32.17;23.88;;;;;;;;;;4993016;28;25062;-68
2024/02/25 07:43:29;;;;;;;29.73;23.40;;;;;;;;;;4983839;28;25054;-67
2024/02/25 07:45:55;;;;;;;32.90;24.83;;;;;;;;;;5003457;28;25070;-70
2024/02/25 07:48:21;;;;;;;38.33;26.63;;;;;;;;;;4995985;28;25052;-69
2024/02/25 07:50:47;;;;;;;29.83;24.77;;;;;;;;;;5005545;28;25059;-67
2024/02/25 07:53:13;;;;;;;33.10;26.73;;;;;;;;;;4993946;28;25057;-67
2024/02/25 07:55:39;;;;;;;33.08;23.10;;;;;;;;;;4984241;28;25189;-69
2024/02/25 07:58:06;;;;;;;30.70;24.63;;;;;;;;;;5003068;28;25076;-67
2024/02/25 08:00:32;;;;;;;33.47;27.05;;;;;;;;;;5004856;28;25073;-67
2024/02/25 08:02:58;;;;;;;28.52;23.25;;;;;;;;;;4998324;28;25076;-70
2024/02/25 08:05:25;;;;;;;32.25;24.73;;;;;;;;;;5000695;28;25108;-68
2024/02/25 08:07:52;;;;;;;33.42;25.58;;;;;;;;;;4993192;28;25070;-69
2024/02/25 08:10:19;;;;;;;28.58;22.90;;;;;;;;;;4997143;28;25120;-68
2024/02/25 08:12:46;;;;;;;33.42;25.52;;;;;;;;;;5000537;28;25100;-67
2024/02/25 08:15:12;;;;;;;26.08;22.15;;;;;;;;;;4997785;28;25074;-70
2024/02/25 08:17:38;;;;;;;29.13;23.77;;;;;;;;;;4985093;28;25062;-68
2024/02/25 08:20:04;;;;;;;31.45;25.00;;;;;;;;;;5001758;28;25066;-66
2024/02/25 08:22:32;;;;;;;31.90;23.40;;;;;;;;;;5001821;28;25142;-67
2024/02/25 08:24:59;;;;;;;30.10;23.90;;;;;;;;;;5003092;28;25053;-67
2024/02/25 08:27:28;;;;;;;28.10;24.05;;;;;;;;;;5003035;28;25152;-67
2024/02/25 08:29:54;;;;;;;29.58;22.80;;;;;;;;;;4980884;28;25070;-69
2024/02/25 08:32:20;;;;;;;27.77;22.08;;;;;;;;;;4999061;28;25069;-68
2024/02/25 08:34:49;;;;;;;28.48;21.48;;;;;;;;;;4998987;28;25074;-68
2024/02/25 08:37:15;;;;;;;31.52;23.27;;;;;;;;;;4996266;28;25113;-67
2024/02/25 08:39:41;;;;;;;25.90;20.10;;;;;;;;;;4989849;28;25071;-67
2024/02/25 08:42:07;;;;;;;30.88;23.77;;;;;;;;;;4995827;28;25068;-67
2024/02/25 08:44:33;;;;;;;31.70;22.73;;;;;;;;;;4990670;28;25076;-67
2024/02/25 08:46:59;;;;;;;27.63;20.85;;;;;;;;;;5001274;28;25074;-66
2024/02/25 08:49:25;;;;;;;24.73;19.58;;;;;;;;;;5002536;28;25058;-65
2024/02/25 08:51:52;;;;;;;22.05;19.73;;;;;;;;;;5021426;28;25068;-66
2024/02/25 08:54:18;;;;;;;24.20;19.85;;;;;;;;;;5016204;28;25080;-69
2024/02/25 08:56:44;;;;;;;24.77;21.35;;;;;;;;;;5002675;28;25057;-67
2024/02/25 08:59:10;;;;;;;28.33;21.90;;;;;;;;;;4996384;28;25064;-70
2024/02/25 09:01:35;;;;;;;26.25;22.23;;;;;;;;;;4996868;28;25061;-66
2024/02/25 09:04:01;;;;;;;31.58;21.45;;;;;;;;;;4997099;28;25075;-67
2024/02/25 09:06:27;;;;;;;27.52;21.75;;;;;;;;;;4995575;28;25136;-67
2024/02/25 09:08:56;;;;;;;26.67;20.02;;;;;;;;;;4988626;28;25065;-66
2024/02/25 09:11:22;;;;;;;27.83;19.60;;;;;;;;;;4998557;28;25086;-66
2024/02/25 09:13:51;;;;;;;23.65;20.15;;;;;;;;;;4979921;28;25089;-66
2024/02/25 09:16:17;;;;;;;23.70;18.98;;;;;;;;;;4991549;28;25155;-67
2024/02/25 09:18:43;;;;;;;26.42;20.20;;;;;;;;;;4983873;28;25082;-67
2024/02/25 09:21:09;;;;;;;31.02;20.52;;;;;;;;;;4994657;28;25134;-69
2024/02/25 09:23:35;;;;;;;30.17;20.67;;;;;;;;;;4994207;28;25121;-69
2024/02/25 09:26:01;;;;;;;27.23;21.20;;;;;;;;;;4995519;28;25513;-67
2024/02/25 09:28:28;;;;;;;28.00;20.80;;;;;;;;;;4996501;28;25056;-67
2024/02/25 09:30:54;;;;;;;23.60;20.08;;;;;;;;;;4990438;28;25162;-68
2024/02/25 09:33:20;;;;;;;29.42;21.65;;;;;;;;;;4999646;28;25140;-67
2024/02/25 09:35:46;;;;;;;28.23;21.88;;;;;;;;;;4998296;28;25492;-69
2024/02/25 09:38:13;;;;;;;24.45;21.10;;;;;;;;;;4998954;28;25516;-68
2024/02/25 09:40:39;;;;;;;28.10;20.95;;;;;;;;;;4978689;28;25065;-68
2024/02/25 09:43:12;;;;;;;25.08;19.88;;;;;;;;;;4992314;28;25058;-67
2024/02/25 09:45:41;;;;;;;21.08;17.55;;;;;;;;;;5000351;28;25066;-68
2024/02/25 09:48:10;;;;;;;22.27;18.02;;;;;;;;;;4998003;28;25085;-67
2024/02/25 09:50:36;;;;;;;20.67;16.52;;;;;;;;;;5001254;28;25083;-65
2024/02/25 09:53:03;;;;;;;20.27;16.25;;;;;;;;;;5000354;28;25091;-68
2024/02/25 09:55:29;;;;;;;20.90;16.52;;;;;;;;;;4995918;28;25089;-66
2024/02/25 09:57:55;;;;;;;18.65;15.57;;;;;;;;;;5001190;28;25057;-65
2024/02/25 10:00:21;;;;;;;17.00;14.55;;;;;;;;;;4984414;28;25088;-67
2024/02/25 10:02:47;;;;;;;18.25;14.32;;;;;;;;;;5000844;28;25070;-66
2024/02/25 10:05:13;;;;;;;16.27;14.57;;;;;;;;;;4997404;28;25062;-66
2024/02/25 10:07:39;;;;;;;17.92;14.63;;;;;;;;;;4995333;28;25051;-65
2024/02/25 10:10:05;;;;;;;17.60;14.55;;;;;;;;;;4979602;28;25162;-67
2024/02/25 10:12:31;;;;;;;18.90;15.23;;;;;;;;;;4993876;28;25071;-66
2024/02/25 10:14:57;;;;;;;19.98;16.70;;;;;;;;;;5005499;28;25068;-67
2024/02/25 10:17:23;;;;;;;18.77;15.80;;;;;;;;;;4996129;28;25099;-68
2024/02/25 10:19:52;;;;;;;21.33;16.95;;;;;;;;;;4989156;28;25107;-66
2024/02/25 10:22:18;;;;;;;19.90;16.73;;;;;;;;;;4997323;28;25144;-68
2024/02/25 10:24:44;;;;;;;23.20;16.35;;;;;;;;;;4988295;28;25069;-67
2024/02/25 10:27:11;;;;;;;20.15;16.55;;;;;;;;;;4987706;28;25065;-67
2024/02/25 10:29:51;;;;;;;22.50;18.50;;;;;;;;;;4999875;28;25143;-67
2024/02/25 10:32:28;;;;;;;24.13;17.15;;;;;;;;;;5001493;28;25085;-67
2024/02/25 10:34:55;;;;;;;19.63;16.75;;;;;;;;;;4995734;28;25044;-66
2024/02/25 10:37:24;;;;;;;23.60;17.33;;;;;;;;;;4984947;28;25055;-66
2024/02/25 10:39:52;;;;;;;22.90;17.23;;;;;;;;;;4983779;28;25156;-66
2024/02/25 10:42:21;;;;;;;20.58;17.35;;;;;;;;;;4996711;28;25064;-66
2024/02/25 10:44:47;;;;;;;21.85;17.20;;;;;;;;;;5000934;28;25063;-67
2024/02/25 10:47:16;;;;;;;18.33;14.65;;;;;;;;;;4993235;28;25136;-68
2024/02/25 10:49:43;;;;;;;16.63;14.30;;;;;;;;;;5004969;28;25111;-67
2024/02/25 10:52:12;;;;;;;17.02;11.80;;;;;;;;;;4994407;28;25054;-67
2024/02/25 10:54:39;;;;;;;12.50;11.20;;;;;;;;;;5000213;28;25123;-67
2024/02/25 10:57:05;;;;;;;14.38;10.10;;;;;;;;;;4996808;28;25083;-65
2024/02/25 10:59:31;;;;;;;16.77;12.30;;;;;;;;;;4998141;28;25081;-66
2024/02/25 11:01:59;;;;;;;14.00;11.32;;;;;;;;;;4994912;28;25066;-65
2024/02/25 11:04:26;;;;;;;14.30;11.80;;;;;;;;;;5003734;28;25065;-65
2024/02/25 11:06:55;;;;;;;17.08;12.52;;;;;;;;;;4997738;28;25083;-68
2024/02/25 11:09:22;;;;;;;14.25;12.70;;;;;;;;;;5000223;28;25062;-67
2024/02/25 11:11:48;;;;;;;15.27;12.90;;;;;;;;;;5018583;28;25094;-65
2024/02/25 11:14:19;;;;;;;22.83;13.38;;;;;;;;;;5014179;28;25154;-66
2024/02/25 11:16:48;;;;;;;17.70;12.38;;;;;;;;;;5004069;28;25082;-68
2024/02/25 11:19:20;;;;;;;16.65;11.38;;;;;;;;;;5011488;28;25068;-66
2024/02/25 11:21:56;;;;;;;20.42;12.82;;;;;;;;;;5004332;28;25088;-67
2024/02/25 11:24:42;;;;;;;14.88;9.88;;;;;;;;;;4994757;28;25083;-67
2024/02/25 11:27:08;;;;;;;10.77;9.23;;;;;;;;;;5001000;28;25102;-69
2024/02/25 11:29:34;;;;;;;14.68;10.05;;;;;;;;;;4990970;28;25094;-66
2024/02/25 11:32:00;;;;;;;17.55;10.05;;;;;;;;;;4978901;28;25056;-67
2024/02/25 11:34:29;;;;;;;13.60;10.55;;;;;;;;;;4995729;28;25056;-66
2024/02/25 11:36:59;;;;;;;12.55;10.90;;;;;;;;;;5002584;28;25089;-67
2024/02/25 11:39:28;;;;;;;16.25;10.40;;;;;;;;;;4991341;28;25054;-65
2024/02/25 11:41:54;;;;;;;15.68;11.40;;;;;;;;;;5002177;28;25111;-67
2024/02/25 11:44:22;;;;;;;17.73;11.07;;;;;;;;;;4993515;28;25137;-66
2024/02/25 11:46:48;;;;;;;12.85;9.75;;;;;;;;;;4997558;28;25062;-65
2024/02/25 11:49:14;;;;;;;16.55;10.98;;;;;;;;;;4984023;28;25080;-68
2024/02/25 11:51:44;;;;;;;12.52;11.15;;;;;;;;;;5001010;28;25060;-67
2024/02/25 11:54:11;;;;;;;18.73;11.57;;;;;;;;;;4990424;28;25052;-68
2024/02/25 11:56:37;;;;;;;21.70;10.95;;;;;;;;;;5002241;28;25063;-67
2024/02/25 11:59:03;;;;;;;13.90;10.30;;;;;;;;;;4998483;28;25076;-66
2024/02/25 12:01:29;;;;;;;14.20;10.40;;;;;;;;;;4993193;28;25053;-66
2024/02/25 12:03:55;;;;;;;13.38;10.35;;;;;;;;;;4993564;28;25099;-66
2024/02/25 12:06:23;;;;;;;14.85;10.45;;;;;;;;;;5001818;28;25054;-66
2024/02/25 12:08:49;;;;;;;14.75;10.63;;;;;;;;;;5000654;28;25056;-67
2024/02/25 12:11:15;;;;;;;15.20;11.50;;;;;;;;;;4994276;28;25123;-65
2024/02/25 12:13:45;;;;;;;17.80;11.32;;;;;;;;;;4985955;28;25157;-65
2024/02/25 12:16:12;;;;;;;12.70;10.05;;;;;;;;;;5002872;28;25064;-67
2024/02/25 12:18:38;;;;;;;17.00;11.93;;;;;;;;;;4994459;28;25060;-68
2024/02/25 12:21:05;;;;;;;10.07;9.07;;;;;;;;;;5002303;28;25075;-66
2024/02/25 12:23:31;;;;;;;11.75;9.82;;;;;;;;;;4998654;28;25095;-66
2024/02/25 12:26:08;;;;;;;11.55;9.00;;;;;;;;;;4976632;28;25125;-66
2024/02/25 12:28:37;;;;;;;12.05;9.38;;;;;;;;;;4995515;28;25116;-65
2024/02/25 12:31:05;;;;;;;10.88;8.00;;;;;;;;;;5001696;28;25096;-65
2024/02/25 12:33:31;;;;;;;13.50;8.95;;;;;;;;;;5003614;28;25056;-66
2024/02/25 12:35:57;;;;;;;12.00;9.30;;;;;;;;;;4979748;28;25155;-65
2024/02/25 12:38:23;;;;;;;12.57;9.10;;;;;;;;;;4998512;28;25055;-67
2024/02/25 12:40:54;;;;;;;10.48;8.02;;;;;;;;;;4996717;28;25153;-66
2024/02/25 12:43:20;;;;;;;8.50;7.28;;;;;;;;;;4990478;28;25074;-68
2024/02/25 12:45:47;;;;;;;11.63;5.88;;;;;;;;;;4989842;28;25097;-66
2024/02/25 12:48:13;;;;;;;9.48;6.80;;;;;;;;;;4995337;28;25065;-67
2024/02/25 12:50:39;;;;;;;8.88;6.60;;;;;;;;;;5001820;28;25075;-66
2024/02/25 12:53:08;;;;;;;8.73;6.35;;;;;;;;;;5000367;28;25116;-66
2024/02/25 12:55:35;;;;;;;7.00;6.00;;;;;;;;;;4996435;28;25070;-67
2024/02/25 12:58:01;;;;;;;8.02;5.93;;;;;;;;;;4992021;28;25069;-66
2024/02/25 13:00:27;;;;;;;8.32;5.68;;;;;;;;;;5000133;28;25122;-66
2024/02/25 13:02:53;;;;;;;8.35;4.47;;;;;;;;;;4998205;28;25062;-65
2024/02/25 13:05:18;;;;;;;8.50;4.22;;;;;;;;;;4994274;28;25086;-67
2024/02/25 13:07:44;;;;;;;10.82;4.07;;;;;;;;;;4984732;28;25064;-67
2024/02/25 13:10:10;;;;;;;9.50;4.00;;;;;;;;;;4999323;28;25054;-67
2024/02/25 13:12:38;;;;;;;7.35;3.78;;;;;;;;;;5003815;28;25102;-67
2024/02/25 13:15:05;;;;;;;6.40;3.08;;;;;;;;;;5003751;28;25049;-66
2024/02/25 13:17:32;;;;;;;5.85;3.35;;;;;;;;;;4995831;28;25061;-66
2024/02/25 13:19:58;;;;;;;5.13;2.47;;;;;;;;;;5009793;28;25074;-65
2024/02/25 13:22:25;;;;;;;5.88;2.40;;;;;;;;;;5008275;28;25130;-65
2024/02/25 13:24:52;;;;;;;6.65;2.47;;;;;;;;;;5008862;28;25055;-65
2024/02/25 13:27:18;;;;;;;6.72;3.47;;;;;;;;;;4982101;28;25069;-66
2024/02/25 13:29:48;;;;;;;5.22;2.88;;;;;;;;;;5007858;28;25069;-66
2024/02/25 13:32:15;;;;;;;6.93;2.83;;;;;;;;;;5025234;28;25064;-66
2024/02/25 13:34:41;;;;;;;5.35;3.30;;;;;;;;;;5011167;28;25068;-66
2024/02/25 13:37:07;;;;;;;6.93;3.10;;;;;;;;;;5025970;28;25074;-67
2024/02/25 13:39:33;;;;;;;4.45;3.10;;;;;;;;;;5022851;28;25061;-67
2024/02/25 13:41:59;;;;;;;4.72;3.30;;;;;;;;;;5011191;28;25088;-66
2024/02/25 13:44:25;;;;;;;6.25;3.50;;;;;;;;;;4999880;28;25072;-66
2024/02/25 13:46:51;;;;;;;7.05;2.85;;;;;;;;;;4992090;28;25066;-69
2024/02/25 13:49:17;;;;;;;6.85;2.67;;;;;;;;;;5002538;28;25068;-65
2024/02/25 13:51:43;;;;;;;4.90;2.00;;;;;;;;;;5009330;28;25074;-66
2024/02/25 13:54:10;;;;;;;6.90;1.77;;;;;;;;;;5009284;28;25089;-67
2024/02/25 13:56:36;;;;;;;6.13;1.40;;;;;;;;;;5001256;28;25154;-66
2024/02/25 13:59:04;;;;;;;3.60;1.33;;;;;;;;;;5003279;28;25074;-65
2024/02/25 14:01:30;;;;;;;2.40;1.15;;;;;;;;;;5005146;28;25063;-66
2024/02/25 14:03:59;;;;;;;5.50;1.70;;;;;;;;;;5006562;28;25051;-68
2024/02/25 14:06:27;;;;;;;7.05;1.25;;;;;;;;;;5006757;28;25079;-66
2024/02/25 14:08:54;;;;;;;4.68;1.27;;;;;;;;;;5000692;28;25077;-65
2024/02/25 14:11:20;;;;;;;2.40;1.27;;;;;;;;;;5006200;28;25064;-68
2024/02/25 14:13:47;;;;;;;3.38;1.50;;;;;;;;;;5008100;28;25095;-65
2024/02/25 14:16:13;;;;;;;3.17;0.93;;;;;;;;;;4999015;28;25102;-65
2024/02/25 14:18:39;;;;;;;4.60;1.45;;;;;;;;;;5003634;28;25102;-67
2024/02/25 14:21:04;;;;;;;3.65;1.42;;;;;;;;;;5000200;28;25210;-66